Time;durP1;ratioP1;P1;durP2;ratioP2;P2;SDS_P1;SDS_P2;PMS_P1;PMS_P2;Temp;Humidity;BMP_temperature;BMP_pressure;BME280_temperature;BME280_humidity;BME280_pressure;Samples;Min_cycle;Max_cycle;Signal;HPM_P1;HPM_P2
2022/10/02 00:02:13;;;;;;;;;;;;;;;12.86;91.30;101372.72;5039744;28;19940;-59
2022/10/02 00:04:52;;;;;;;;;;;;;;;12.85;91.49;101371.06;5042518;28;19929;-58
2022/10/02 00:07:19;;;;;;;;;;;;;;;12.83;91.46;101378.41;5041332;28;19986;-59
2022/10/02 00:09:56;;;;;;;;;;;;;;;12.82;91.76;101378.56;5041362;28;20332;-59
2022/10/02 00:12:23;;;;;;;;;;;;;;;12.75;91.53;101377.59;5041911;28;20301;-58
2022/10/02 00:14:50;;;;;;;;;;;;;;;12.70;91.88;101376.25;5041279;28;20021;-58
2022/10/02 00:17:20;;;;;;;;;;;;;;;12.68;91.61;101383.59;5043533;28;19924;-59
2022/10/02 00:19:45;;;;;;;;;;;;;;;12.65;91.66;101389.25;5045047;28;19974;-59
2022/10/02 00:22:17;;;;;;;;;;;;;;;12.62;91.30;101386.13;5042057;28;19921;-59
2022/10/02 00:25:02;;;;;;;;;;;;;;;12.60;91.53;101388.13;5041997;28;21206;-59
2022/10/02 00:27:46;;;;;;;;;;;;;;;12.59;91.07;101386.47;5039925;28;20382;-58
2022/10/02 00:30:13;;;;;;;;;;;;;;;12.57;90.97;101381.31;5039315;28;20062;-59
2022/10/02 00:32:57;;;;;;;;;;;;;;;12.55;91.36;101383.31;5042089;28;20388;-58
2022/10/02 00:35:46;;;;;;;;;;;;;;;12.52;91.45;101390.81;5042092;28;19917;-59
2022/10/02 00:38:20;;;;;;;;;;;;;;;12.47;91.83;101394.00;5040051;28;20003;-58
2022/10/02 00:40:51;;;;;;;;;;;;;;;12.43;92.39;101387.31;5045878;28;19931;-59
2022/10/02 00:43:19;;;;;;;;;;;;;;;12.40;92.47;101384.97;5042203;28;19929;-59
2022/10/02 00:45:52;;;;;;;;;;;;;;;12.38;93.53;101382.50;5042514;28;21787;-58
2022/10/02 00:48:25;;;;;;;;;;;;;;;12.36;93.79;101386.31;5039181;28;19963;-59
2022/10/02 00:51:07;;;;;;;;;;;;;;;12.37;94.23;101382.66;5041528;28;19959;-58
2022/10/02 00:53:39;;;;;;;;;;;;;;;12.37;94.45;101383.50;5038418;28;19924;-59
2022/10/02 00:56:13;;;;;;;;;;;;;;;12.37;94.79;101382.66;5039254;28;19972;-59
2022/10/02 00:58:38;;;;;;;;;;;;;;;12.40;95.09;101388.47;5043737;28;19931;-58
2022/10/02 01:01:27;;;;;;;;;;;;;;;12.42;95.61;101385.66;5041285;28;19917;-58
2022/10/02 01:03:53;;;;;;;;;;;;;;;12.44;96.04;101381.00;5040849;28;20388;-59
2022/10/02 01:06:22;;;;;;;;;;;;;;;12.48;95.93;101379.66;5043980;28;19928;-59
2022/10/02 01:08:48;;;;;;;;;;;;;;;12.52;96.36;101380.97;5040750;28;20070;-58
2022/10/02 01:11:13;;;;;;;;;;;;;;;12.54;96.45;101380.81;5038996;28;20430;-58
2022/10/02 01:13:38;;;;;;;;;;;;;;;12.55;96.32;101387.81;5043986;28;19917;-58
2022/10/02 01:16:09;;;;;;;;;;;;;;;12.55;96.53;101385.97;5042031;28;19916;-58
2022/10/02 01:18:35;;;;;;;;;;;;;;;12.57;96.23;101380.47;5039240;28;19920;-58
2022/10/02 01:21:15;;;;;;;;;;;;;;;12.58;96.39;101380.31;5046696;28;19943;-59
2022/10/02 01:24:03;;;;;;;;;;;;;;;12.62;96.59;101386.94;5047540;28;19917;-58
2022/10/02 01:26:29;;;;;;;;;;;;;;;12.62;96.78;101383.44;5032646;28;19925;-57
2022/10/02 01:28:54;;;;;;;;;;;;;;;12.62;96.54;101392.28;5040055;28;19982;-58
2022/10/02 01:31:20;;;;;;;;;;;;;;;12.63;96.20;101377.94;5037479;28;20568;-58
2022/10/02 01:33:48;;;;;;;;;;;;;;;12.64;96.75;101392.94;5048206;28;20471;-59
2022/10/02 01:36:13;;;;;;;;;;;;;;;12.65;96.70;101394.59;5044021;28;19917;-58
2022/10/02 01:38:39;;;;;;;;;;;;;;;12.67;96.65;101391.75;5046597;28;19916;-58
2022/10/02 01:41:06;;;;;;;;;;;;;;;12.67;96.86;101383.75;5044152;28;19944;-59
2022/10/02 01:43:37;;;;;;;;;;;;;;;12.69;96.87;101387.09;5039612;28;20287;-58
2022/10/02 01:46:08;;;;;;;;;;;;;;;12.70;97.19;101391.41;5041802;28;19921;-59
2022/10/02 01:48:33;;;;;;;;;;;;;;;12.70;97.38;101388.75;5042305;28;19927;-59
2022/10/02 01:51:14;;;;;;;;;;;;;;;12.71;97.11;101393.06;5045473;28;19920;-58
2022/10/02 01:53:57;;;;;;;;;;;;;;;12.73;97.49;101384.94;5043688;28;20433;-58
2022/10/02 01:56:22;;;;;;;;;;;;;;;12.74;97.49;101394.59;5046655;28;20458;-58
2022/10/02 01:58:53;;;;;;;;;;;;;;;12.77;97.42;101399.59;5047860;28;20481;-59
2022/10/02 02:01:22;;;;;;;;;;;;;;;12.79;97.60;101402.91;5047517;28;20402;-58
2022/10/02 02:03:58;;;;;;;;;;;;;;;12.82;97.96;101414.06;5045458;28;19921;-59
2022/10/02 02:06:32;;;;;;;;;;;;;;;12.78;97.76;101406.56;5043365;28;19921;-58
2022/10/02 02:08:57;;;;;;;;;;;;;;;12.79;97.77;101414.41;5047770;28;19921;-58
2022/10/02 02:11:22;;;;;;;;;;;;;;;12.74;97.39;101410.59;5039436;28;19924;-58
2022/10/02 02:13:57;;;;;;;;;;;;;;;12.69;97.52;101414.56;5048140;28;19970;-58
2022/10/02 02:16:27;;;;;;;;;;;;;;;12.68;97.91;101412.91;5045558;28;20023;-58
2022/10/02 02:18:58;;;;;;;;;;;;;;;12.68;98.23;101410.25;5047196;28;20012;-58
2022/10/02 02:21:28;;;;;;;;;;;;;;;12.69;98.27;101411.91;5044611;28;19987;-58
2022/10/02 02:23:54;;;;;;;;;;;;;;;12.68;98.44;101420.91;5039640;28;19924;-58
2022/10/02 02:26:21;;;;;;;;;;;;;;;12.69;98.62;101413.72;5039344;28;19921;-59
2022/10/02 02:28:52;;;;;;;;;;;;;;;12.69;98.21;101408.41;5041663;28;19935;-59
2022/10/02 02:31:21;;;;;;;;;;;;;;;12.68;98.70;101406.75;5045926;28;19996;-59
2022/10/02 02:33:55;;;;;;;;;;;;;;;12.65;98.32;101405.25;5038603;28;19932;-58
2022/10/02 02:36:23;;;;;;;;;;;;;;;12.62;98.12;101408.25;5043504;28;19917;-58
2022/10/02 02:38:56;;;;;;;;;;;;;;;12.61;98.73;101403.09;5046385;28;20283;-58
2022/10/02 02:41:26;;;;;;;;;;;;;;;12.61;98.77;101405.78;5040859;28;20007;-58
2022/10/02 02:43:58;;;;;;;;;;;;;;;12.61;98.79;101406.59;5044110;28;20037;-58
2022/10/02 02:47:02;;;;;;;;;;;;;;;12.64;99.23;101410.75;5043675;28;19924;-59
2022/10/02 02:49:21;;;;;;;;;;;;;;;12.66;99.34;101409.56;5044456;28;19917;-57
2022/10/02 02:51:47;;;;;;;;;;;;;;;12.69;99.45;101406.56;5042421;28;19971;-59
2022/10/02 02:54:16;;;;;;;;;;;;;;;12.71;99.79;101406.41;5047626;28;19916;-59
2022/10/02 02:56:43;;;;;;;;;;;;;;;12.74;99.75;101411.41;5043267;28;20410;-58
2022/10/02 02:59:12;;;;;;;;;;;;;;;12.76;99.81;101409.41;5044096;28;20003;-59
2022/10/02 03:01:38;;;;;;;;;;;;;;;12.77;100.00;101413.75;5049298;28;19913;-59
2022/10/02 03:04:03;;;;;;;;;;;;;;;12.78;99.91;101415.41;5044867;28;20011;-59
2022/10/02 03:06:36;;;;;;;;;;;;;;;12.80;99.90;101404.56;5039884;28;20310;-58
2022/10/02 03:09:03;;;;;;;;;;;;;;;12.80;100.00;101405.41;5047014;28;20778;-58
2022/10/02 03:11:35;;;;;;;;;;;;;;;12.80;100.00;101408.06;5047959;28;19986;-58
2022/10/02 03:14:16;;;;;;;;;;;;;;;12.82;99.76;101407.88;5044326;28;19921;-58
2022/10/02 03:16:50;;;;;;;;;;;;;;;12.82;99.75;101416.72;5042012;28;19924;-59
2022/10/02 03:19:25;;;;;;;;;;;;;;;12.82;99.91;101416.72;5044711;28;19982;-58
2022/10/02 03:22:03;;;;;;;;;;;;;;;12.82;99.87;101413.22;5043330;28;19963;-58
2022/10/02 03:24:45;;;;;;;;;;;;;;;12.82;99.76;101418.56;5041479;28;19917;-58
2022/10/02 03:27:23;;;;;;;;;;;;;;;12.79;99.38;101419.72;5047798;28;19916;-58
2022/10/02 03:29:48;;;;;;;;;;;;;;;12.77;99.51;101418.25;5044188;28;19927;-58
2022/10/02 03:32:15;;;;;;;;;;;;;;;12.78;99.48;101422.56;5044226;28;19920;-58
2022/10/02 03:34:40;;;;;;;;;;;;;;;12.79;99.38;101422.38;5040670;28;20007;-59
2022/10/02 03:37:06;;;;;;;;;;;;;;;12.82;99.49;101419.38;5044696;28;20058;-58
2022/10/02 03:39:31;;;;;;;;;;;;;;;12.84;99.59;101425.38;5035850;28;19927;-58
2022/10/02 03:41:56;;;;;;;;;;;;;;;12.84;99.68;101422.72;5045031;28;20398;-59
2022/10/02 03:44:22;;;;;;;;;;;;;;;12.85;99.88;101428.88;5040358;28;19917;-58
2022/10/02 03:46:47;;;;;;;;;;;;;;;12.83;99.74;101426.38;5042929;28;20111;-59
2022/10/02 03:49:12;;;;;;;;;;;;;;;12.83;99.73;101425.53;5033991;28;20370;-58
2022/10/02 03:51:37;;;;;;;;;;;;;;;12.82;99.79;101429.22;5041282;28;19923;-58
2022/10/02 03:54:05;;;;;;;;;;;;;;;12.82;99.88;101431.88;5042865;28;19952;-59
2022/10/02 03:56:45;;;;;;;;;;;;;;;12.79;99.67;101429.56;5040925;28;19917;-59
2022/10/02 03:59:12;;;;;;;;;;;;;;;12.77;99.74;101423.56;5042147;28;20709;-58
2022/10/02 04:01:40;;;;;;;;;;;;;;;12.75;99.73;101423.75;5041909;28;19924;-57
2022/10/02 04:04:10;;;;;;;;;;;;;;;12.74;99.91;101429.25;5041449;28;20305;-59
2022/10/02 04:06:44;;;;;;;;;;;;;;;12.74;99.75;101429.25;5040500;28;20010;-59
2022/10/02 04:09:12;;;;;;;;;;;;;;;12.73;99.74;101430.25;5043009;28;19923;-59
2022/10/02 04:11:40;;;;;;;;;;;;;;;12.74;99.62;101424.75;5042169;28;19932;-58
2022/10/02 04:14:15;;;;;;;;;;;;;;;12.79;99.46;101434.88;5042891;28;19920;-59
2022/10/02 04:16:47;;;;;;;;;;;;;;;12.77;99.19;101418.25;5042245;28;19916;-59
2022/10/02 04:19:17;;;;;;;;;;;;;;;12.74;99.55;101415.91;5044525;28;20398;-59
2022/10/02 04:21:45;;;;;;;;;;;;;;;12.73;98.97;101416.91;5041066;28;19959;-58
2022/10/02 04:24:20;;;;;;;;;;;;;;;12.68;99.25;101412.91;5040147;28;20398;-59
2022/10/02 04:26:57;;;;;;;;;;;;;;;12.63;99.00;101419.75;5047092;28;20014;-58
2022/10/02 04:29:25;;;;;;;;;;;;;;;12.60;98.98;101415.59;5042240;28;20017;-59
2022/10/02 04:32:00;;;;;;;;;;;;;;;12.58;98.94;101416.78;5041562;28;19956;-58
2022/10/02 04:34:26;;;;;;;;;;;;;;;12.54;99.18;101423.44;5038250;28;20121;-59
2022/10/02 04:37:16;;;;;;;;;;;;;;;12.51;99.35;101424.63;5045752;28;19917;-59
2022/10/02 04:39:51;;;;;;;;;;;;;;;12.47;99.30;101431.28;5047786;28;20411;-59
2022/10/02 04:42:36;;;;;;;;;;;;;;;12.43;99.33;101435.25;5045653;28;19935;-59
2022/10/02 04:45:08;;;;;;;;;;;;;;;12.40;99.39;101448.91;5042989;28;20403;-58
2022/10/02 04:47:52;;;;;;;;;;;;;;;12.38;99.49;101456.25;5038671;28;19925;-59
2022/10/02 04:50:29;;;;;;;;;;;;;;;12.37;99.63;101449.25;5044901;28;19924;-59
2022/10/02 04:53:11;;;;;;;;;;;;;;;12.37;99.96;101450.09;5042236;28;19917;-59
2022/10/02 04:55:55;;;;;;;;;;;;;;;12.37;99.74;101451.91;5042169;28;19988;-59
2022/10/02 04:58:28;;;;;;;;;;;;;;;12.35;99.54;101460.06;5045568;28;20011;-59
2022/10/02 05:01:05;;;;;;;;;;;;;;;12.34;99.59;101461.06;5045081;28;20423;-58
2022/10/02 05:03:53;;;;;;;;;;;;;;;12.31;99.53;101471.22;5044635;28;19970;-59
2022/10/02 05:06:30;;;;;;;;;;;;;;;12.32;99.85;101475.56;5010208;28;19921;-59
2022/10/02 05:09:04;;;;;;;;;;;;;;;12.32;100.00;101475.56;5048108;28;20016;-59
2022/10/02 05:11:39;;;;;;;;;;;;;;;12.31;99.91;101474.72;5043703;28;19939;-58
2022/10/02 05:14:09;;;;;;;;;;;;;;;12.32;100.00;101468.41;5045975;28;19959;-59
2022/10/02 05:16:35;;;;;;;;;;;;;;;12.35;100.00;101461.91;5047139;28;19940;-58
2022/10/02 05:19:23;;;;;;;;;;;;;;;12.38;100.00;101466.91;5052631;28;20293;-59
2022/10/02 05:21:54;;;;;;;;;;;;;;;12.40;100.00;101462.22;5046031;28;20014;-59
2022/10/02 05:24:26;;;;;;;;;;;;;;;12.42;100.00;101465.56;5046368;28;19978;-59
2022/10/02 05:26:57;;;;;;;;;;;;;;;12.42;100.00;101473.53;5045954;28;20003;-58
2022/10/02 05:29:49;;;;;;;;;;;;;;;12.43;100.00;101477.88;5040870;28;19924;-59
2022/10/02 05:32:14;;;;;;;;;;;;;;;12.46;100.00;101472.25;5041821;28;19917;-59
2022/10/02 05:34:39;;;;;;;;;;;;;;;12.48;100.00;101488.88;5047435;28;19921;-59
2022/10/02 05:37:05;;;;;;;;;;;;;;;12.48;100.00;101482.72;5045331;28;20372;-59
2022/10/02 05:39:54;;;;;;;;;;;;;;;12.46;100.00;101492.72;5039246;28;20396;-59
2022/10/02 05:42:25;;;;;;;;;;;;;;;12.46;100.00;101488.22;5041857;28;20000;-59
2022/10/02 05:44:55;;;;;;;;;;;;;;;12.46;100.00;101498.06;5048335;28;19964;-59
2022/10/02 05:47:24;;;;;;;;;;;;;;;12.44;100.00;101495.56;5041479;28;19948;-58
2022/10/02 05:49:52;;;;;;;;;;;;;;;12.45;100.00;101497.22;5041923;28;19978;-59
2022/10/02 05:52:20;;;;;;;;;;;;;;;12.45;100.00;101499.88;5044936;28;19923;-59
2022/10/02 05:54:54;;;;;;;;;;;;;;;12.46;100.00;101501.53;5045894;28;20533;-58
2022/10/02 05:57:33;;;;;;;;;;;;;;;12.48;100.00;101504.03;5042535;28;19917;-58
2022/10/02 05:59:59;;;;;;;;;;;;;;;12.50;100.00;101510.88;5043656;28;20450;-57
2022/10/02 06:02:32;;;;;;;;;;;;;;;12.54;100.00;101504.19;5045962;28;19948;-59
2022/10/02 06:05:16;;;;;;;;;;;;;;;12.55;100.00;101497.88;5044049;28;19921;-59
2022/10/02 06:07:44;;;;;;;;;;;;;;;12.57;100.00;101498.53;5044065;28;20087;-59
2022/10/02 06:10:11;;;;;;;;;;;;;;;12.58;100.00;101510.03;5043412;28;20121;-60
2022/10/02 06:12:38;;;;;;;;;;;;;;;12.60;100.00;101521.34;5040012;28;20457;-59
2022/10/02 06:15:23;;;;;;;;;;;;;;;12.62;100.00;101524.66;5038761;28;19921;-58
2022/10/02 06:17:52;;;;;;;;;;;;;;;12.62;100.00;101530.84;5033228;28;20292;-58
2022/10/02 06:20:33;;;;;;;;;;;;;;;12.64;100.00;101531.50;5048284;28;19940;-58
2022/10/02 06:23:09;;;;;;;;;;;;;;;12.67;100.00;101541.81;5042824;28;19956;-58
2022/10/02 06:25:55;;;;;;;;;;;;;;;12.72;100.00;101541.31;5046072;28;19963;-58
2022/10/02 06:28:24;;;;;;;;;;;;;;;12.74;100.00;101523.34;5049196;28;19946;-59
2022/10/02 06:30:51;;;;;;;;;;;;;;;12.79;100.00;101525.50;5043673;28;19928;-58
2022/10/02 06:33:21;;;;;;;;;;;;;;;12.82;100.00;101527.84;5048931;28;19943;-58
2022/10/02 06:36:07;;;;;;;;;;;;;;;12.85;100.00;101535.50;5051885;28;19917;-58
2022/10/02 06:38:32;;;;;;;;;;;;;;;12.87;100.00;101521.00;5044074;28;20415;-59
2022/10/02 06:41:21;;;;;;;;;;;;;;;12.89;100.00;101521.66;5048580;28;20388;-59
2022/10/02 06:44:07;;;;;;;;;;;;;;;12.91;100.00;101529.47;5039437;28;20586;-59
2022/10/02 06:46:35;;;;;;;;;;;;;;;12.95;100.00;101541.47;5046172;28;19921;-59
2022/10/02 06:49:29;;;;;;;;;;;;;;;12.96;100.00;101549.28;5047305;28;19917;-59
2022/10/02 06:52:07;;;;;;;;;;;;;;;12.99;100.00;101553.47;5046237;28;19917;-58
2022/10/02 06:54:38;;;;;;;;;;;;;;;13.00;100.00;101553.28;5045147;28;19939;-59
2022/10/02 06:57:13;;;;;;;;;;;;;;;13.01;100.00;101568.31;5047197;28;19928;-58
2022/10/02 06:59:47;;;;;;;;;;;;;;;13.03;100.00;101566.31;5040473;28;19952;-58
2022/10/02 07:02:28;;;;;;;;;;;;;;;13.05;100.00;101571.47;5046391;28;19964;-58
2022/10/02 07:04:56;;;;;;;;;;;;;;;13.08;100.00;101572.97;5049958;28;19921;-58
2022/10/02 07:07:40;;;;;;;;;;;;;;;13.11;100.00;101577.97;5048687;28;19920;-59
2022/10/02 07:10:15;;;;;;;;;;;;;;;13.13;100.00;101574.13;5050095;28;19963;-58
2022/10/02 07:12:49;;;;;;;;;;;;;;;13.16;100.00;101571.09;5038637;28;20364;-58
2022/10/02 07:15:27;;;;;;;;;;;;;;;13.18;100.00;101562.97;5047638;28;19916;-58
2022/10/02 07:18:07;;;;;;;;;;;;;;;13.20;100.00;101566.28;5040739;28;19966;-59
2022/10/02 07:20:48;;;;;;;;;;;;;;;13.22;100.00;101570.44;5043881;28;19922;-59
2022/10/02 07:23:19;;;;;;;;;;;;;;;13.25;100.00;101572.78;5039307;28;19925;-58
2022/10/02 07:25:57;;;;;;;;;;;;;;;13.27;100.00;101586.78;5047067;28;19921;-59
2022/10/02 07:28:42;;;;;;;;;;;;;;;13.28;100.00;101583.09;5041593;28;19917;-58
2022/10/02 07:31:25;;;;;;;;;;;;;;;13.31;100.00;101576.63;5053568;28;19990;-58
2022/10/02 07:33:50;;;;;;;;;;;;;;;13.32;100.00;101579.13;5038334;28;20167;-59
2022/10/02 07:36:24;;;;;;;;;;;;;;;13.35;100.00;101577.94;5039640;28;20443;-57
2022/10/02 07:38:50;;;;;;;;;;;;;;;13.37;100.00;101586.59;5045311;28;20370;-58
2022/10/02 07:41:18;;;;;;;;;;;;;;;13.40;100.00;101578.25;5041280;28;19960;-59
2022/10/02 07:43:51;;;;;;;;;;;;;;;13.43;100.00;101587.75;5048107;28;19920;-59
2022/10/02 07:46:22;;;;;;;;;;;;;;;13.48;100.00;101590.75;5054021;28;19986;-58
2022/10/02 07:49:09;;;;;;;;;;;;;;;13.53;100.00;101583.03;5048775;28;19917;-58
2022/10/02 07:51:46;;;;;;;;;;;;;;;13.60;100.00;101598.22;5044389;28;19979;-58
2022/10/02 07:54:20;;;;;;;;;;;;;;;13.67;100.00;101605.53;5045978;28;19913;-59
2022/10/02 07:56:47;;;;;;;;;;;;;;;13.73;100.00;101595.00;5046483;28;20007;-58
2022/10/02 07:59:15;;;;;;;;;;;;;;;13.80;100.00;101597.81;5039584;28;19917;-59
2022/10/02 08:01:41;;;;;;;;;;;;;;;13.83;100.00;101590.28;5046684;28;20015;-58
2022/10/02 08:04:17;;;;;;;;;;;;;;;13.84;100.00;101597.28;5047322;28;19921;-59
2022/10/02 08:06:45;;;;;;;;;;;;;;;13.89;100.00;101605.63;5041735;28;19917;-58
2022/10/02 08:09:40;;;;;;;;;;;;;;;13.93;100.00;101614.13;5047859;28;19936;-59
2022/10/02 08:12:11;;;;;;;;;;;;;;;13.98;100.00;101621.59;5028800;28;19921;-59
2022/10/02 08:14:40;;;;;;;;;;;;;;;14.01;100.00;101623.91;5047413;28;19928;-59
2022/10/02 08:17:13;;;;;;;;;;;;;;;14.04;100.00;101623.56;5046357;28;19975;-58
2022/10/02 08:19:44;;;;;;;;;;;;;;;14.05;100.00;101634.09;5037482;28;20789;-59
2022/10/02 08:22:29;;;;;;;;;;;;;;;14.10;100.00;101638.91;5047635;28;19916;-58
2022/10/02 08:24:56;;;;;;;;;;;;;;;14.12;100.00;101644.91;5047589;28;19923;-58
2022/10/02 08:27:25;;;;;;;;;;;;;;;14.14;100.00;101640.22;5047968;28;19924;-58
2022/10/02 08:29:54;;;;;;;;;;;;;;;14.17;100.00;101645.22;5044113;28;19913;-59
2022/10/02 08:32:21;;;;;;;;;;;;;;;14.20;100.00;101647.56;5043191;28;19924;-58
2022/10/02 08:34:46;;;;;;;;;;;;;;;14.25;99.99;101650.53;5042657;28;19921;-58
2022/10/02 08:37:37;;;;;;;;;;;;;;;14.32;100.00;101653.31;5043388;28;19917;-58
2022/10/02 08:40:09;;;;;;;;;;;;;;;14.32;99.96;101659.50;5038610;28;20807;-59
2022/10/02 08:42:55;;;;;;;;;;;;;;;14.33;99.80;101660.34;5044807;28;20055;-58
2022/10/02 08:45:39;;;;;;;;;;;;;;;14.38;99.62;101663.31;5046892;28;19921;-58
2022/10/02 08:48:14;;;;;;;;;;;;;;;14.44;99.62;101659.97;5046432;28;20007;-59
2022/10/02 08:50:58;;;;;;;;;;;;;;;14.46;99.34;101664.16;5043554;28;19917;-58
2022/10/02 08:53:26;;;;;;;;;;;;;;;14.51;99.27;101667.13;5044463;28;19916;-58
2022/10/02 08:56:04;;;;;;;;;;;;;;;14.51;98.83;101682.31;5045117;28;19920;-59
2022/10/02 08:58:48;;;;;;;;;;;;;;;14.55;98.74;101676.44;5047141;28;19920;-58
2022/10/02 09:01:33;;;;;;;;;;;;;;;14.59;98.43;101682.25;5048063;28;19935;-57
2022/10/02 09:04:27;;;;;;;;;;;;;;;14.61;98.46;101685.59;5042221;28;19916;-59
2022/10/02 09:07:10;;;;;;;;;;;;;;;14.63;97.76;101688.09;5039474;28;20322;-58
2022/10/02 09:09:42;;;;;;;;;;;;;;;14.65;97.36;101691.41;5039101;28;20621;-58
2022/10/02 09:12:32;;;;;;;;;;;;;;;14.67;97.09;101705.44;5041571;28;19932;-58
2022/10/02 09:15:17;;;;;;;;;;;;;;;14.67;96.62;101698.25;5038977;28;19992;-58
2022/10/02 09:18:00;;;;;;;;;;;;;;;14.71;96.53;101699.56;5036785;28;19917;-58
2022/10/02 09:20:44;;;;;;;;;;;;;;;14.82;96.54;101701.00;5043715;28;19967;-58
2022/10/02 09:23:28;;;;;;;;;;;;;;;14.90;96.65;101698.28;5038903;28;19924;-58
2022/10/02 09:26:10;;;;;;;;;;;;;;;14.97;96.15;101698.38;5043446;28;19929;-58
2022/10/02 09:28:53;;;;;;;;;;;;;;;15.01;95.77;101697.03;5042780;28;19928;-58
2022/10/02 09:31:39;;;;;;;;;;;;;;;15.03;95.73;101695.00;5039821;28;19931;-59
2022/10/02 09:34:07;;;;;;;;;;;;;;;15.02;94.75;101687.97;5046317;28;19921;-57
2022/10/02 09:36:32;;;;;;;;;;;;;;;15.06;94.68;101692.81;5049308;28;19917;-59
2022/10/02 09:39:16;;;;;;;;;;;;;;;15.09;94.65;101702.34;5042631;28;20232;-59
2022/10/02 09:41:43;;;;;;;;;;;;;;;15.12;94.50;101705.47;5050927;28;19924;-58
2022/10/02 09:44:27;;;;;;;;;;;;;;;15.13;93.84;101711.66;5047943;28;19924;-58
2022/10/02 09:46:53;;;;;;;;;;;;;;;15.17;93.52;101713.78;5049630;28;20029;-58
2022/10/02 09:49:39;;;;;;;;;;;;;;;15.18;93.24;101706.59;5049832;28;19959;-59
2022/10/02 09:52:07;;;;;;;;;;;;;;;15.26;92.44;101719.06;5046410;28;19913;-59
2022/10/02 09:54:46;;;;;;;;;;;;;;;15.29;92.48;101726.72;5045376;28;19917;-59
2022/10/02 09:57:30;;;;;;;;;;;;;;;15.32;92.04;101716.50;5043822;28;19917;-58
2022/10/02 10:00:10;;;;;;;;;;;;;;;15.43;91.64;101721.44;5045807;28;20383;-58
2022/10/02 10:02:39;;;;;;;;;;;;;;;15.47;91.71;101728.09;5049804;28;19916;-58
2022/10/02 10:05:22;;;;;;;;;;;;;;;15.47;91.38;101717.38;5050144;28;19917;-58
2022/10/02 10:07:47;;;;;;;;;;;;;;;15.55;90.86;101718.31;5042635;28;20392;-59
2022/10/02 10:10:19;;;;;;;;;;;;;;;15.61;90.54;101729.19;5046582;28;20390;-58
2022/10/02 10:12:48;;;;;;;;;;;;;;;15.72;90.54;101728.72;5049561;28;20000;-58
2022/10/02 10:15:31;;;;;;;;;;;;;;;15.78;90.29;101728.00;5052744;28;19983;-59
2022/10/02 10:18:15;;;;;;;;;;;;;;;15.88;89.69;101726.88;5049506;28;19921;-58
2022/10/02 10:20:59;;;;;;;;;;;;;;;15.94;89.69;101739.56;5055048;28;19978;-58
2022/10/02 10:23:35;;;;;;;;;;;;;;;15.89;87.74;101733.91;5041117;28;19952;-59
2022/10/02 10:26:03;;;;;;;;;;;;;;;15.80;87.57;101747.38;5053444;28;19974;-58
2022/10/02 10:28:32;;;;;;;;;;;;;;;15.84;87.87;101747.03;5048578;28;20391;-58
2022/10/02 10:31:01;;;;;;;;;;;;;;;15.88;86.64;101762.53;5049683;28;19916;-59
2022/10/02 10:33:44;;;;;;;;;;;;;;;15.96;87.00;101750.94;5052514;28;20390;-58
2022/10/02 10:39:18;;;;;;;;;;;;;;;16.12;85.40;101758.78;5047560;28;19959;-59
2022/10/02 10:42:10;;;;;;;;;;;;;;;16.22;85.17;101763.88;5047436;28;19948;-59
2022/10/02 10:44:47;;;;;;;;;;;;;;;16.28;84.76;101755.94;5046002;28;19916;-58
2022/10/02 10:47:17;;;;;;;;;;;;;;;16.29;84.38;101772.84;5042706;28;20054;-59
2022/10/02 10:49:45;;;;;;;;;;;;;;;16.32;82.82;101761.75;5050805;28;19919;-58
2022/10/02 10:52:33;;;;;;;;;;;;;;;16.39;82.83;101766.16;5048251;28;19932;-59
2022/10/02 10:55:13;;;;;;;;;;;;;;;16.51;82.60;101765.72;5015870;28;19917;-59
2022/10/02 10:57:57;;;;;;;;;;;;;;;16.58;79.75;101766.63;5047389;28;19924;-58
2022/10/02 11:00:24;;;;;;;;;;;;;;;16.61;79.22;101764.41;5051928;28;19917;-59
2022/10/02 11:02:54;;;;;;;;;;;;;;;16.61;78.63;101774.28;5055515;28;20390;-57
2022/10/02 11:05:29;;;;;;;;;;;;;;;16.56;78.47;101765.97;5049487;28;19916;-59
2022/10/02 11:08:13;;;;;;;;;;;;;;;16.56;78.68;101768.66;5047471;28;19930;-59
2022/10/02 11:10:38;;;;;;;;;;;;;;;16.52;78.51;101776.25;5043321;28;19919;-59
2022/10/02 11:13:12;;;;;;;;;;;;;;;16.48;78.21;101774.97;5048811;28;19928;-59
2022/10/02 11:15:38;;;;;;;;;;;;;;;16.46;78.26;101773.47;5049358;28;20316;-59
2022/10/02 11:18:22;;;;;;;;;;;;;;;16.47;78.62;101775.13;5042553;28;20392;-58
2022/10/02 11:20:49;;;;;;;;;;;;;;;16.48;78.68;101779.47;5044149;28;19917;-58
2022/10/02 11:23:33;;;;;;;;;;;;;;;16.47;78.64;101788.53;5042106;28;19967;-58
2022/10/02 11:26:21;;;;;;;;;;;;;;;16.45;79.44;101787.88;5052842;28;20003;-57
2022/10/02 11:29:04;;;;;;;;;;;;;;;16.36;79.38;101798.72;5051430;28;19998;-59
2022/10/02 11:31:40;;;;;;;;;;;;;;;16.28;79.53;101792.63;5037550;28;19917;-59
2022/10/02 11:34:17;;;;;;;;;;;;;;;16.23;78.74;101801.22;5041184;28;19917;-59
2022/10/02 11:36:48;;;;;;;;;;;;;;;16.23;79.85;101806.59;5048135;28;20352;-59
2022/10/02 11:39:32;;;;;;;;;;;;;;;16.26;79.45;101800.84;5048343;28;19919;-59
2022/10/02 11:41:58;;;;;;;;;;;;;;;16.22;78.27;101796.88;5045642;28;19932;-58
2022/10/02 11:44:44;;;;;;;;;;;;;;;16.19;77.79;101799.06;5048699;28;19912;-58
2022/10/02 11:47:17;;;;;;;;;;;;;;;16.19;77.87;101813.34;5041478;28;20403;-58
2022/10/02 11:49:58;;;;;;;;;;;;;;;16.24;77.06;101810.94;5039588;28;19917;-59
2022/10/02 11:52:24;;;;;;;;;;;;;;;16.20;76.50;101804.28;5046369;28;19939;-59
2022/10/02 11:55:00;;;;;;;;;;;;;;;16.22;76.98;101806.75;5048791;28;19932;-58
2022/10/02 11:57:28;;;;;;;;;;;;;;;16.23;76.05;101813.78;5045196;28;19924;-59
2022/10/02 12:00:04;;;;;;;;;;;;;;;16.25;76.02;101809.06;5044610;28;20300;-58
2022/10/02 12:02:34;;;;;;;;;;;;;;;16.30;76.05;101809.34;5047894;28;19913;-59
2022/10/02 12:05:04;;;;;;;;;;;;;;;16.40;76.21;101816.09;5048260;28;19921;-59
2022/10/02 12:07:51;;;;;;;;;;;;;;;16.55;76.22;101815.28;5040085;28;19917;-59
2022/10/02 12:10:19;;;;;;;;;;;;;;;16.67;75.89;101813.78;5045522;28;19936;-59
2022/10/02 12:12:54;;;;;;;;;;;;;;;16.86;76.06;101810.53;5046722;28;19923;-58
2022/10/02 12:15:33;;;;;;;;;;;;;;;16.98;74.41;101819.75;5045442;28;20051;-59
2022/10/02 12:18:02;;;;;;;;;;;;;;;17.07;74.15;101819.66;5046054;28;19917;-59
2022/10/02 12:26:58;;;;;;;;;;;;;;;17.08;72.52;101822.16;5039678;28;19924;-59
2022/10/02 12:29:39;;;;;;;;;;;;;;;17.14;72.97;101820.56;5045210;28;20332;-58
2022/10/02 12:32:06;;;;;;;;;;;;;;;17.29;73.25;101819.47;5049622;28;20126;-59
2022/10/02 12:34:42;;;;;;;;;;;;;;;17.45;73.72;101823.78;5049079;28;20012;-59
2022/10/02 12:37:07;;;;;;;;;;;;;;;17.61;73.52;101825.34;5044898;28;20000;-59
2022/10/02 12:39:33;;;;;;;;;;;;;;;17.74;73.24;101828.22;5041948;28;20636;-59
2022/10/02 12:42:10;;;;;;;;;;;;;;;17.78;72.60;101818.75;5042268;28;19917;-59
2022/10/02 12:44:52;;;;;;;;;;;;;;;17.78;71.75;101837.53;5043788;28;19912;-59
2022/10/02 12:47:40;;;;;;;;;;;;;;;17.76;71.01;101830.72;5037378;28;20003;-59
2022/10/02 12:50:15;;;;;;;;;;;;;;;17.74;70.42;101838.13;5041878;28;20011;-59
2022/10/02 12:52:49;;;;;;;;;;;;;;;17.70;70.93;101832.31;5041653;28;19923;-59
2022/10/02 12:55:17;;;;;;;;;;;;;;;17.72;68.39;101829.44;5045918;28;19917;-58
2022/10/02 12:58:06;;;;;;;;;;;;;;;17.76;68.40;101825.34;5042833;28;19921;-59
2022/10/02 13:01:02;;;;;;;;;;;;;;;17.83;67.92;101835.09;5018461;28;19916;-58
2022/10/02 13:03:40;;;;;;;;;;;;;;;17.92;66.82;101846.53;5045490;28;19973;-59
2022/10/02 13:06:12;;;;;;;;;;;;;;;17.91;65.68;101836.81;5048476;28;19917;-58
2022/10/02 13:09:02;;;;;;;;;;;;;;;18.07;64.49;101844.59;5046673;28;20372;-59
2022/10/02 13:11:46;;;;;;;;;;;;;;;18.15;64.22;101849.00;5039650;28;19925;-58
2022/10/02 13:14:17;;;;;;;;;;;;;;;18.28;64.48;101846.41;5041846;28;19924;-59
2022/10/02 13:16:45;;;;;;;;;;;;;;;18.36;64.55;101848.09;5045308;28;19912;-59
2022/10/02 13:19:14;;;;;;;;;;;;;;;18.47;64.45;101839.47;5052385;28;20303;-59